createdAt,value
2023-02-21T00:04:37.960Z,97862.52
2023-02-21T00:09:16.169Z,97860.16
2023-02-21T00:13:38.782Z,97855.59
2023-02-21T00:18:01.354Z,97852.89
2023-02-21T00:22:29.531Z,97849.61
2023-02-21T00:26:32.403Z,97847.66
2023-02-21T00:30:54.865Z,97846.78
2023-02-21T00:35:17.710Z,97848.60
2023-02-21T00:39:40.761Z,97853.36
2023-02-21T00:44:09.251Z,97857.29
2023-02-21T00:48:32.075Z,97841.18
2023-02-21T00:52:54.398Z,97836.21
2023-02-21T00:57:16.985Z,97828.01
2023-02-21T01:01:39.490Z,97823.19
2023-02-21T01:06:01.755Z,97823.16
2023-02-21T01:10:24.652Z,97824.70
2023-02-21T01:15:06.904Z,97811.84
2023-02-21T01:19:29.189Z,97813.98
2023-02-21T01:23:52.446Z,97806.34
2023-02-21T01:28:14.770Z,97802.50
2023-02-21T01:32:25.848Z,97796.26
2023-02-21T01:36:48.487Z,97788.52
2023-02-21T01:41:15.161Z,97780.30
2023-02-21T01:45:36.301Z,97768.98
2023-02-21T01:49:58.537Z,97756.58
2023-02-21T01:54:21.085Z,97754.87
2023-02-21T01:58:43.275Z,97750.15
2023-02-21T02:03:10.595Z,97744.20
2023-02-21T02:07:33.257Z,97736.48
2023-02-21T02:11:58.892Z,97733.19
2023-02-21T02:16:31.912Z,97725.67
2023-02-21T02:21:23.073Z,97721.58
2023-02-21T02:25:52.016Z,97721.06
2023-02-21T02:30:18.938Z,97716.52
2023-02-21T02:34:47.163Z,97708.23
2023-02-21T02:39:42.931Z,97720.82
2023-02-21T02:44:15.707Z,97718.15
2023-02-21T02:48:39.623Z,97719.73
2023-02-21T02:53:03.626Z,97722.10
2023-02-21T02:57:27.641Z,97726.24
2023-02-21T03:01:48.804Z,97730.85
2023-02-21T03:06:27.818Z,97728.23
2023-02-21T03:10:50.194Z,97731.64
2023-02-21T03:15:37.167Z,97731.86
2023-02-21T03:20:21.859Z,97734.14
2023-02-21T03:24:46.693Z,97735.90
2023-02-21T03:29:10.878Z,97738.21
2023-02-21T03:33:34.775Z,97737.02
2023-02-21T03:37:58.632Z,97736.48
2023-02-21T03:42:22.467Z,97733.63
2023-02-21T03:46:46.366Z,97731.21
2023-02-21T03:51:10.005Z,97728.27
2023-02-21T03:55:26.414Z,97721.61
2023-02-21T03:59:50.633Z,97720.89
2023-02-21T04:04:15.737Z,97721.16
2023-02-21T04:08:47.733Z,97730.58
2023-02-21T04:13:11.883Z,97728.59
2023-02-21T04:17:35.808Z,97727.46
2023-02-21T04:21:59.846Z,97726.54
2023-02-21T04:26:23.691Z,97721.60
2023-02-21T04:30:48.786Z,97729.55
2023-02-21T04:35:13.058Z,97724.57
2023-02-21T04:39:37.523Z,97734.42
2023-02-21T04:44:01.458Z,97726.86
2023-02-21T04:48:25.319Z,97724.61
2023-02-21T04:52:49.409Z,97724.50
2023-02-21T04:57:13.454Z,97716.15
2023-02-21T05:01:37.433Z,97716.48
2023-02-21T05:06:01.387Z,97713.52
2023-02-21T05:10:18.147Z,97712.52
2023-02-21T05:14:42.086Z,97723.16
2023-02-21T05:19:05.999Z,97718.33
2023-02-21T05:23:22.036Z,97717.30
2023-02-21T05:27:46.007Z,97714.44
2023-02-21T05:32:10.120Z,97716.42
2023-02-21T05:36:34.129Z,97717.36
2023-02-21T05:40:58.140Z,97718.29
2023-02-21T05:45:22.299Z,97712.67
2023-02-21T05:49:47.100Z,97712.27
2023-02-21T05:54:09.553Z,97705.36
2023-02-21T05:58:33.800Z,97706.70
2023-02-21T06:02:58.745Z,97717.45
2023-02-21T06:07:22.729Z,97719.90
2023-02-21T06:11:45.627Z,97721.09
2023-02-21T06:16:09.978Z,97712.11
2023-02-21T06:20:34.325Z,97709.00
2023-02-21T06:24:58.348Z,97705.04
2023-02-21T06:29:22.337Z,97715.33
2023-02-21T06:33:47.286Z,97723.05
2023-02-21T06:38:11.132Z,97723.61
2023-02-21T06:42:35.081Z,97729.69
2023-02-21T06:46:59.457Z,97734.78
2023-02-21T06:51:23.371Z,97738.31
2023-02-21T06:55:47.824Z,97742.94
2023-02-21T07:00:11.709Z,97746.39
2023-02-21T07:04:28.648Z,97743.94
2023-02-21T07:08:52.740Z,97747.19
2023-02-21T07:13:17.348Z,97752.11
2023-02-21T07:17:39.983Z,97763.30
2023-02-21T07:21:58.745Z,97757.20
2023-02-21T07:26:22.747Z,97753.41
2023-02-21T07:30:45.824Z,97749.03
2023-02-21T07:35:10.223Z,97746.82
2023-02-21T07:39:34.449Z,97749.72
2023-02-21T07:43:58.491Z,97752.64
2023-02-21T07:48:15.265Z,97758.14
2023-02-21T07:52:39.045Z,97756.89
2023-02-21T07:57:03.019Z,97759.58
2023-02-21T08:01:26.938Z,97756.48
2023-02-21T08:05:50.839Z,97753.34
2023-02-21T08:10:17.286Z,97754.38
2023-02-21T08:14:41.693Z,97750.67
2023-02-21T08:18:58.522Z,97759.21
2023-02-21T08:23:22.467Z,97757.81
2023-02-21T08:27:46.464Z,97759.68
2023-02-21T08:32:10.475Z,97756.31
2023-02-21T08:36:34.198Z,97758.02
2023-02-21T08:41:00.780Z,97755.25
2023-02-21T08:45:24.721Z,97757.33
2023-02-21T08:49:48.663Z,97751.01
2023-02-21T08:54:12.955Z,97758.46
2023-02-21T08:58:38.266Z,97761.20
2023-02-21T09:03:02.466Z,97754.25
2023-02-21T09:07:26.345Z,97763.45
2023-02-21T09:11:50.012Z,97778.17
2023-02-21T09:16:12.774Z,97774.55
2023-02-21T09:20:36.720Z,97782.75
2023-02-21T09:25:20.702Z,97772.95
2023-02-21T09:29:46.626Z,97779.59
2023-02-21T09:34:10.991Z,97780.23
2023-02-21T09:38:35.026Z,97779.84
2023-02-21T09:42:59.041Z,97792.23
2023-02-21T09:47:40.996Z,97790.58
2023-02-21T09:52:05.124Z,97787.49
2023-02-21T09:56:34.962Z,97796.92
2023-02-21T10:00:59.089Z,97801.20
2023-02-21T10:05:21.995Z,97803.23
2023-02-21T10:09:57.680Z,97803.48
2023-02-21T10:14:42.752Z,97815.28
2023-02-21T10:19:27.498Z,97814.19
2023-02-21T10:23:55.189Z,97816.57
2023-02-21T10:28:19.225Z,97811.05
2023-02-21T10:32:43.072Z,97807.48
2023-02-21T10:37:19.352Z,97806.07
2023-02-21T10:41:44.209Z,97800.67
2023-02-21T10:46:08.514Z,97796.65
2023-02-21T10:50:35.559Z,97804.59
2023-02-21T10:55:01.400Z,97804.45
2023-02-21T10:59:25.430Z,97809.16
2023-02-21T11:03:53.142Z,97819.02
2023-02-21T11:08:17.698Z,97823.77
2023-02-21T11:12:34.783Z,97830.80
2023-02-21T11:16:59.577Z,97834.46
2023-02-21T11:21:23.528Z,97831.27
2023-02-21T11:26:12.558Z,97833.70
2023-02-21T11:30:36.484Z,97841.91
2023-02-21T11:34:42.098Z,97842.59
2023-02-21T11:38:45.682Z,97850.04
2023-02-21T11:43:09.627Z,97854.80
2023-02-21T11:47:42.462Z,97863.92
2023-02-21T11:52:05.019Z,97856.98
2023-02-21T11:56:37.787Z,97861.12
2023-02-21T12:01:09.075Z,97860.77
2023-02-21T12:05:54.320Z,97864.13
2023-02-21T12:10:20.802Z,97861.06
2023-02-21T12:14:36.048Z,97874.45
2023-02-21T12:18:58.112Z,97862.89
2023-02-21T12:23:25.020Z,97866.77
2023-02-21T12:27:51.953Z,97869.34
2023-02-21T12:32:24.734Z,97867.20
2023-02-21T12:36:51.295Z,97871.36
2023-02-21T12:41:33.332Z,97867.13
2023-02-21T12:45:59.908Z,97869.60
2023-02-21T12:50:18.632Z,97864.54
2023-02-21T12:54:42.551Z,97861.48
2023-02-21T12:59:06.557Z,97857.79
2023-02-21T13:03:29.139Z,97863.23
2023-02-21T13:08:05.208Z,97855.96
2023-02-21T13:12:42.936Z,97863.98
2023-02-21T13:17:06.920Z,97863.69
2023-02-21T13:21:39.899Z,97859.35
2023-02-21T13:26:09.798Z,97863.94
2023-02-21T13:30:39.563Z,97866.23
2023-02-21T13:35:04.721Z,97866.58
2023-02-21T13:39:28.565Z,97865.16
2023-02-21T13:44:01.928Z,97868.27
2023-02-21T13:48:31.650Z,97871.31
2023-02-21T13:53:00.065Z,97868.65
2023-02-21T13:57:24.140Z,97873.09
2023-02-21T14:01:35.018Z,97873.10
2023-02-21T14:06:01.928Z,97876.08
2023-02-21T14:10:18.408Z,97877.67
2023-02-21T14:14:53.122Z,97879.37
2023-02-21T14:19:19.766Z,97876.08
2023-02-21T14:23:56.938Z,97872.61
2023-02-21T14:28:00.267Z,97881.66
2023-02-21T14:32:26.019Z,97874.61
2023-02-21T14:36:49.945Z,97881.21
2023-02-21T14:41:19.865Z,97886.20
2023-02-21T14:45:52.840Z,97880.95
2023-02-21T14:50:19.813Z,97873.23
2023-02-21T14:55:01.958Z,97876.40
2023-02-21T14:59:25.057Z,97882.91
2023-02-21T15:03:54.765Z,97882.98
2023-02-21T15:08:21.378Z,97885.52
2023-02-21T15:12:46.463Z,97881.61
2023-02-21T15:17:11.932Z,97878.80
2023-02-21T15:21:43.040Z,97886.92
2023-02-21T15:26:12.500Z,97888.71
2023-02-21T15:30:42.479Z,97893.05
2023-02-21T15:34:59.503Z,97886.73
2023-02-21T15:39:32.218Z,97886.54
2023-02-21T15:44:05.150Z,97885.15
2023-02-21T15:48:29.080Z,97891.52
2023-02-21T15:53:08.153Z,97899.27
2023-02-21T15:57:41.015Z,97907.20
2023-02-21T16:02:07.827Z,97907.42
2023-02-21T16:06:31.915Z,97913.37
2023-02-21T16:10:58.533Z,97911.69
2023-02-21T16:15:40.765Z,97916.55
2023-02-21T16:20:04.956Z,97931.77
2023-02-21T16:24:29.898Z,97934.47
2023-02-21T16:28:53.746Z,97938.34
2023-02-21T16:33:17.658Z,97931.48
2023-02-21T16:37:41.663Z,97933.81
2023-02-21T16:42:05.622Z,97943.00
2023-02-21T16:46:30.444Z,97952.98
2023-02-21T16:51:01.553Z,97960.05
2023-02-21T16:55:26.525Z,97970.16
2023-02-21T16:59:50.407Z,97973.20
2023-02-21T17:04:14.299Z,97971.69
2023-02-21T17:08:38.265Z,97977.73
2023-02-21T17:12:52.320Z,97977.84
2023-02-21T17:17:16.243Z,97973.61
2023-02-21T17:21:39.657Z,97976.50
2023-02-21T17:26:03.550Z,97977.74
2023-02-21T17:30:27.652Z,97977.88
2023-02-21T17:34:47.030Z,97980.55
2023-02-21T17:39:10.783Z,97980.08
2023-02-21T17:43:34.807Z,97978.29
2023-02-21T17:48:00.788Z,97982.19
2023-02-21T17:52:24.764Z,97983.39
2023-02-21T17:56:48.334Z,97988.08
2023-02-21T18:01:12.344Z,97993.06
2023-02-21T18:05:37.310Z,97994.98
2023-02-21T18:10:02.275Z,98001.61
2023-02-21T18:14:26.149Z,97997.45
2023-02-21T18:18:50.121Z,98000.70
2023-02-21T18:23:14.302Z,98003.09
2023-02-21T18:27:38.301Z,98004.29
2023-02-21T18:32:02.176Z,97998.33
2023-02-21T18:36:26.045Z,98000.19
2023-02-21T18:40:55.621Z,98008.02
2023-02-21T18:45:19.149Z,98010.20
2023-02-21T18:49:43.003Z,98012.28
2023-02-21T18:54:09.050Z,98013.06
2023-02-21T18:58:32.899Z,98018.40
2023-02-21T19:02:56.781Z,98013.89
2023-02-21T19:07:21.748Z,98012.26
2023-02-21T19:11:45.702Z,98021.46
2023-02-21T19:16:09.866Z,98017.48
2023-02-21T19:20:34.026Z,98014.63
2023-02-21T19:24:57.803Z,98020.30
2023-02-21T19:29:25.859Z,98025.91
2023-02-21T19:33:58.309Z,98031.94
2023-02-21T19:38:28.107Z,98038.79
2023-02-21T19:42:46.470Z,98040.63
2023-02-21T19:47:11.544Z,98042.61
2023-02-21T19:51:36.428Z,98044.69
2023-02-21T19:55:50.685Z,98047.17
2023-02-21T20:00:14.628Z,98053.25
2023-02-21T20:04:36.999Z,98055.73
2023-02-21T20:09:00.929Z,98052.77
2023-02-21T20:13:24.930Z,98047.95
2023-02-21T20:17:48.835Z,98035.29
2023-02-21T20:22:19.018Z,98041.34
2023-02-21T20:26:36.868Z,98044.64
2023-02-21T20:30:55.165Z,98039.58
2023-02-21T20:35:19.102Z,98044.60
2023-02-21T20:39:43.003Z,98049.77
2023-02-21T20:44:06.962Z,98053.92
2023-02-21T20:48:30.259Z,98063.47
2023-02-21T20:52:54.198Z,98060.75
2023-02-21T20:57:17.905Z,98066.88
2023-02-21T21:01:35.111Z,98061.81
2023-02-21T21:05:59.400Z,98063.48
2023-02-21T21:10:23.480Z,98067.19
2023-02-21T21:14:32.978Z,98072.45
2023-02-21T21:18:56.868Z,98079.37
2023-02-21T21:23:21.321Z,98077.70
2023-02-21T21:27:49.573Z,98081.08
2023-02-21T21:32:13.482Z,98081.05
2023-02-21T21:36:37.440Z,98073.10
2023-02-21T21:41:01.485Z,98073.20
2023-02-21T21:45:18.570Z,98080.69
2023-02-21T21:49:42.770Z,98083.85
2023-02-21T21:54:06.669Z,98082.60
2023-02-21T21:58:17.801Z,98087.67
2023-02-21T22:02:41.698Z,98092.33
2023-02-21T22:07:05.830Z,98095.13
2023-02-21T22:11:29.860Z,98100.77
2023-02-21T22:15:47.559Z,98096.45
2023-02-21T22:20:04.861Z,98103.05
2023-02-21T22:24:28.824Z,98104.62
2023-02-21T22:28:45.882Z,98104.35
2023-02-21T22:33:09.925Z,98104.92
2023-02-21T22:37:33.793Z,98107.42
2023-02-21T22:42:00.399Z,98106.88
2023-02-21T22:46:03.958Z,98113.48
2023-02-21T22:50:47.839Z,98113.29
2023-02-21T22:55:11.799Z,98115.58
2023-02-21T22:59:35.805Z,98122.67
2023-02-21T23:03:59.656Z,98123.41
2023-02-21T23:08:23.759Z,98132.75
2023-02-21T23:12:47.919Z,98131.90
2023-02-21T23:17:11.883Z,98128.54
2023-02-21T23:21:35.787Z,98127.05
2023-02-21T23:26:00.095Z,98122.56
2023-02-21T23:30:23.930Z,98119.17
2023-02-21T23:34:47.975Z,98121.81
2023-02-21T23:39:13.029Z,98123.27
2023-02-21T23:43:37.117Z,98121.96
2023-02-21T23:48:04.045Z,98122.95
2023-02-21T23:52:27.894Z,98122.84
2023-02-21T23:56:52.752Z,98122.10
